sensor_id;sensor_type;location;lat;lon;timestamp;P1;P2;P0
68198;PMS7003;55021;51.554;17.044;2023-07-24T00:23:11;16.50;11.25;4.00
68198;PMS7003;55021;51.554;17.044;2023-07-24T00:38:14;8.75;8.00;2.75
68198;PMS7003;55021;51.554;17.044;2023-07-24T01:08:20;10.50;10.00;4.00
68198;PMS7003;55021;51.554;17.044;2023-07-24T01:38:35;16.25;11.75;4.75
68198;PMS7003;55021;51.554;17.044;2023-07-24T01:53:39;13.00;11.00;5.25
68198;PMS7003;55021;51.554;17.044;2023-07-24T02:08:41;11.00;10.50;4.75
68198;PMS7003;55021;51.554;17.044;2023-07-24T02:23:44;12.50;10.75;5.50
68198;PMS7003;55021;51.554;17.044;2023-07-24T02:53:49;12.25;11.25;6.00
68198;PMS7003;55021;51.554;17.044;2023-07-24T03:08:52;14.25;13.00;5.00
68198;PMS7003;55021;51.554;17.044;2023-07-24T03:38:57;10.50;10.50;5.00
68198;PMS7003;55021;51.554;17.044;2023-07-24T03:53:59;16.50;12.00;5.00
68198;PMS7003;55021;51.554;17.044;2023-07-24T04:24:05;14.50;13.00;6.00
68198;PMS7003;55021;51.554;17.044;2023-07-24T04:39:08;13.25;10.25;5.00
68198;PMS7003;55021;51.554;17.044;2023-07-24T04:54:10;11.50;11.00;3.75
68198;PMS7003;55021;51.554;17.044;2023-07-24T05:09:17;12.00;10.00;4.00
68198;PMS7003;55021;51.554;17.044;2023-07-24T05:24:19;12.00;10.00;4.50
68198;PMS7003;55021;51.554;17.044;2023-07-24T05:39:22;14.25;10.75;5.00
68198;PMS7003;55021;51.554;17.044;2023-07-24T05:54:24;10.00;9.50;4.00
68198;PMS7003;55021;51.554;17.044;2023-07-24T06:09:27;10.25;9.75;4.00
68198;PMS7003;55021;51.554;17.044;2023-07-24T06:24:29;14.50;12.00;5.00
68198;PMS7003;55021;51.554;17.044;2023-07-24T06:39:32;12.25;9.75;4.25
68198;PMS7003;55021;51.554;17.044;2023-07-24T06:54:34;11.50;10.00;5.00
68198;PMS7003;55021;51.554;17.044;2023-07-24T07:24:39;10.25;10.25;4.50
68198;PMS7003;55021;51.554;17.044;2023-07-24T07:39:41;10.50;10.50;5.00
68198;PMS7003;55021;51.554;17.044;2023-07-24T07:54:46;9.50;9.50;5.25
68198;PMS7003;55021;51.554;17.044;2023-07-24T08:09:49;11.25;10.25;4.00
68198;PMS7003;55021;51.554;17.044;2023-07-24T08:24:52;11.25;10.50;5.00
68198;PMS7003;55021;51.554;17.044;2023-07-24T08:39:54;13.00;11.25;6.75
68198;PMS7003;55021;51.554;17.044;2023-07-24T08:54:58;10.50;8.00;3.75
68198;PMS7003;55021;51.554;17.044;2023-07-24T09:10:05;9.00;9.00;3.75
68198;PMS7003;55021;51.554;17.044;2023-07-24T09:25:10;8.75;8.50;4.00
68198;PMS7003;55021;51.554;17.044;2023-07-24T09:40:28;9.50;9.50;3.25
68198;PMS7003;55021;51.554;17.044;2023-07-24T09:55:43;8.75;8.00;3.00
68198;PMS7003;55021;51.554;17.044;2023-07-24T10:10:49;11.00;8.75;4.00
68198;PMS7003;55021;51.554;17.044;2023-07-24T10:25:52;8.00;7.75;3.00
68198;PMS7003;55021;51.554;17.044;2023-07-24T10:41:00;9.25;7.75;2.25
68198;PMS7003;55021;51.554;17.044;2023-07-24T10:56:05;7.50;7.25;2.00
68198;PMS7003;55021;51.554;17.044;2023-07-24T11:11:09;10.00;10.00;4.25
68198;PMS7003;55021;51.554;17.044;2023-07-24T11:26:12;9.50;8.75;3.75
68198;PMS7003;55021;51.554;17.044;2023-07-24T11:41:16;10.25;9.00;3.50
68198;PMS7003;55021;51.554;17.044;2023-07-24T11:56:20;7.50;7.50;3.00
68198;PMS7003;55021;51.554;17.044;2023-07-24T12:11:24;11.25;11.25;4.50
68198;PMS7003;55021;51.554;17.044;2023-07-24T12:26:27;9.50;9.00;4.00
68198;PMS7003;55021;51.554;17.044;2023-07-24T12:41:30;11.00;10.00;4.00
68198;PMS7003;55021;51.554;17.044;2023-07-24T12:56:32;12.00;12.00;6.50
68198;PMS7003;55021;51.554;17.044;2023-07-24T13:11:35;14.00;12.50;6.50
68198;PMS7003;55021;51.554;17.044;2023-07-24T13:26:37;11.75;11.00;4.25
68198;PMS7003;55021;51.554;17.044;2023-07-24T13:41:39;11.50;10.25;5.00
68198;PMS7003;55021;51.554;17.044;2023-07-24T13:56:42;17.00;16.25;9.50
68198;PMS7003;55021;51.554;17.044;2023-07-24T14:11:45;18.25;16.75;10.50
68198;PMS7003;55021;51.554;17.044;2023-07-24T14:26:47;12.50;12.50;5.75
68198;PMS7003;55021;51.554;17.044;2023-07-24T14:41:50;15.50;14.00;7.00
68198;PMS7003;55021;51.554;17.044;2023-07-24T14:56:54;16.50;14.50;7.00
68198;PMS7003;55021;51.554;17.044;2023-07-24T15:12:07;17.00;13.75;6.25
68198;PMS7003;55021;51.554;17.044;2023-07-24T15:27:12;15.25;12.75;6.75
68198;PMS7003;55021;51.554;17.044;2023-07-24T15:42:27;15.25;12.75;6.00
68198;PMS7003;55021;51.554;17.044;2023-07-24T15:57:37;16.75;14.50;8.25
68198;PMS7003;55021;51.554;17.044;2023-07-24T16:12:39;13.50;12.00;6.00
68198;PMS7003;55021;51.554;17.044;2023-07-24T16:27:43;13.00;13.00;7.00
68198;PMS7003;55021;51.554;17.044;2023-07-24T16:42:46;17.50;14.75;7.50
68198;PMS7003;55021;51.554;17.044;2023-07-24T16:57:49;16.00;15.25;7.25
68198;PMS7003;55021;51.554;17.044;2023-07-24T17:12:51;19.50;13.25;7.25
68198;PMS7003;55021;51.554;17.044;2023-07-24T17:27:57;16.50;14.75;8.25
68198;PMS7003;55021;51.554;17.044;2023-07-24T17:43:00;15.75;14.50;7.00
68198;PMS7003;55021;51.554;17.044;2023-07-24T17:58:02;18.25;16.25;7.25
68198;PMS7003;55021;51.554;17.044;2023-07-24T18:13:05;18.25;16.50;8.00
68198;PMS7003;55021;51.554;17.044;2023-07-24T18:28:08;21.25;19.25;10.50
68198;PMS7003;55021;51.554;17.044;2023-07-24T18:43:11;18.00;15.50;8.00
68198;PMS7003;55021;51.554;17.044;2023-07-24T18:58:13;17.00;15.00;8.00
68198;PMS7003;55021;51.554;17.044;2023-07-24T19:13:16;20.25;18.75;11.25
68198;PMS7003;55021;51.554;17.044;2023-07-24T19:28:19;22.50;20.00;11.75
68198;PMS7003;55021;51.554;17.044;2023-07-24T19:43:21;18.25;16.75;9.00
68198;PMS7003;55021;51.554;17.044;2023-07-24T19:58:26;19.75;17.00;9.50
68198;PMS7003;55021;51.554;17.044;2023-07-24T20:13:29;22.00;19.50;11.75
68198;PMS7003;55021;51.554;17.044;2023-07-24T20:28:31;22.00;21.25;12.00
68198;PMS7003;55021;51.554;17.044;2023-07-24T20:43:34;25.25;20.25;11.00
68198;PMS7003;55021;51.554;17.044;2023-07-24T20:58:36;20.50;19.00;10.25
68198;PMS7003;55021;51.554;17.044;2023-07-24T21:13:39;19.75;17.25;8.50
68198;PMS7003;55021;51.554;17.044;2023-07-24T21:28:50;21.50;16.75;10.25
68198;PMS7003;55021;51.554;17.044;2023-07-24T21:43:53;19.00;17.00;10.00
68198;PMS7003;55021;51.554;17.044;2023-07-24T21:58:56;19.00;17.50;8.25
68198;PMS7003;55021;51.554;17.044;2023-07-24T22:13:59;18.25;18.00;11.00
68198;PMS7003;55021;51.554;17.044;2023-07-24T22:29:02;16.25;14.75;8.00
68198;PMS7003;55021;51.554;17.044;2023-07-24T22:59:17;14.25;13.00;7.25
68198;PMS7003;55021;51.554;17.044;2023-07-24T23:14:24;14.75;13.00;7.00
68198;PMS7003;55021;51.554;17.044;2023-07-24T23:29:26;12.50;11.00;6.25
68198;PMS7003;55021;51.554;17.044;2023-07-24T23:44:29;14.00;11.25;6.00
68198;PMS7003;55021;51.554;17.044;2023-07-24T23:59:31;10.00;10.00;5.00
